Hovedside
METAR-TAF:

METAR-TAF

Lufthavner :

London Heathrow lufthavn

London-Heathrow, England

breddegrad: 51-29N, lengdegrad: 000-27W, høyde over havet: 24 m

Gjeldene værobservasjon

Denne rapporten ble laget for 49 minutter siden, klokken 14:20 UTC
Vind 10 kt fra Sør, skiftende mellom Sør-sørøst og Sørvest
Temperatur 27°C
Luftfuktighet 45%
Trykk 1019 hPa
Sikt 10 km eller mer

METAR: EGLL 181420Z AUTO 18010KT 150V220 9999 NCD 27/14 Q1019 NOSIG

Tid: 16:09 (15:09 UTC)

Varsel

Denne rapporten ble laget for 4 timer og 18 minutter siden, klokken 10:51 UTC
Varsel gyldig fra 18. klokken 12 UTC til 19. klokken 18 UTC
Vind 7 kt fra Sør
Sikt 10 km eller mer
Få skyer i en høyde av 4500 ft

TAF: EGLL 181051Z 1812/1918 18007KT 9999 FEW045

Værobservasjoner og værvarsel for over 4000 flyplasser (METAR- og TAF-rapporter).

Tilgjengelige stasjoner er representert av de røde og gule prikkene på kartet.

Hold musepekeren over prikken for å se navnet på stasjonen.

Klikk så for å se værobservasjoner og -varsler.

For å forandre kartet kan du klikke på den grønne knappen med svart kryss for å zoome inn, på den grønne knappen med strek for å zoome ut, eller på de grønne pilene for å se tilstøtende kart.


METAR-TAF: